sensor_id;sensor_type;location;lat;lon;timestamp;P1;durP1;ratioP1;P2;durP2;ratioP2
68976;SDS011;56029;52.568;13.588;2022-08-21T00:01:55;21.75;;;13.20;;
68976;SDS011;56029;52.568;13.588;2022-08-21T00:04:21;19.80;;;12.70;;
68976;SDS011;56029;52.568;13.588;2022-08-21T00:06:47;18.30;;;12.07;;
68976;SDS011;56029;52.568;13.588;2022-08-21T00:09:13;17.20;;;12.00;;
68976;SDS011;56029;52.568;13.588;2022-08-21T00:11:39;16.50;;;11.53;;
68976;SDS011;56029;52.568;13.588;2022-08-21T00:14:05;17.30;;;11.90;;
68976;SDS011;56029;52.568;13.588;2022-08-21T00:16:33;16.63;;;11.55;;
68976;SDS011;56029;52.568;13.588;2022-08-21T00:18:59;16.98;;;11.57;;
68976;SDS011;56029;52.568;13.588;2022-08-21T00:21:25;17.40;;;11.27;;
68976;SDS011;56029;52.568;13.588;2022-08-21T00:23:51;19.33;;;11.70;;
68976;SDS011;56029;52.568;13.588;2022-08-21T00:26:17;18.53;;;11.87;;
68976;SDS011;56029;52.568;13.588;2022-08-21T00:28:43;18.38;;;11.60;;
68976;SDS011;56029;52.568;13.588;2022-08-21T00:31:11;16.00;;;11.20;;
68976;SDS011;56029;52.568;13.588;2022-08-21T00:33:37;16.50;;;10.97;;
68976;SDS011;56029;52.568;13.588;2022-08-21T00:36:03;16.33;;;11.25;;
68976;SDS011;56029;52.568;13.588;2022-08-21T00:38:29;17.83;;;10.88;;
68976;SDS011;56029;52.568;13.588;2022-08-21T00:40:56;15.43;;;10.23;;
68976;SDS011;56029;52.568;13.588;2022-08-21T00:43:26;14.87;;;10.30;;
68976;SDS011;56029;52.568;13.588;2022-08-21T00:45:54;17.30;;;11.07;;
68976;SDS011;56029;52.568;13.588;2022-08-21T00:48:21;15.98;;;10.35;;
68976;SDS011;56029;52.568;13.588;2022-08-21T00:50:52;15.52;;;10.13;;
68976;SDS011;56029;52.568;13.588;2022-08-21T00:53:25;15.90;;;10.18;;
68976;SDS011;56029;52.568;13.588;2022-08-21T00:55:52;15.67;;;10.00;;
68976;SDS011;56029;52.568;13.588;2022-08-21T00:58:18;16.23;;;10.45;;
68976;SDS011;56029;52.568;13.588;2022-08-21T01:00:45;14.95;;;10.25;;
68976;SDS011;56029;52.568;13.588;2022-08-21T01:03:15;14.95;;;9.98;;
68976;SDS011;56029;52.568;13.588;2022-08-21T01:05:42;15.93;;;9.80;;
68976;SDS011;56029;52.568;13.588;2022-08-21T01:08:09;15.00;;;10.07;;
68976;SDS011;56029;52.568;13.588;2022-08-21T01:10:35;16.13;;;10.10;;
68976;SDS011;56029;52.568;13.588;2022-08-21T01:13:02;16.75;;;10.63;;
68976;SDS011;56029;52.568;13.588;2022-08-21T01:15:32;14.93;;;10.52;;
68976;SDS011;56029;52.568;13.588;2022-08-21T01:18:00;14.75;;;9.57;;
68976;SDS011;56029;52.568;13.588;2022-08-21T01:20:28;15.93;;;9.77;;
68976;SDS011;56029;52.568;13.588;2022-08-21T01:22:54;14.65;;;9.15;;
68976;SDS011;56029;52.568;13.588;2022-08-21T01:25:20;12.80;;;8.87;;
68976;SDS011;56029;52.568;13.588;2022-08-21T01:27:45;14.35;;;9.43;;
68976;SDS011;56029;52.568;13.588;2022-08-21T01:30:19;14.43;;;9.88;;
68976;SDS011;56029;52.568;13.588;2022-08-21T01:32:49;15.73;;;9.65;;
68976;SDS011;56029;52.568;13.588;2022-08-21T01:35:15;14.37;;;9.10;;
68976;SDS011;56029;52.568;13.588;2022-08-21T01:37:42;14.70;;;10.00;;
68976;SDS011;56029;52.568;13.588;2022-08-21T01:40:08;15.13;;;9.52;;
68976;SDS011;56029;52.568;13.588;2022-08-21T01:42:36;15.15;;;9.65;;
68976;SDS011;56029;52.568;13.588;2022-08-21T01:45:05;14.47;;;9.03;;
68976;SDS011;56029;52.568;13.588;2022-08-21T01:47:31;16.02;;;10.13;;
68976;SDS011;56029;52.568;13.588;2022-08-21T01:49:58;15.05;;;9.25;;
68976;SDS011;56029;52.568;13.588;2022-08-21T01:52:23;13.57;;;9.10;;
68976;SDS011;56029;52.568;13.588;2022-08-21T01:54:49;13.95;;;9.02;;
68976;SDS011;56029;52.568;13.588;2022-08-21T01:57:15;14.07;;;8.85;;
68976;SDS011;56029;52.568;13.588;2022-08-21T01:59:40;13.90;;;8.97;;
68976;SDS011;56029;52.568;13.588;2022-08-21T02:02:06;14.50;;;9.20;;
68976;SDS011;56029;52.568;13.588;2022-08-21T02:04:32;16.47;;;9.20;;
68976;SDS011;56029;52.568;13.588;2022-08-21T02:06:59;17.33;;;9.00;;
68976;SDS011;56029;52.568;13.588;2022-08-21T02:09:25;16.13;;;9.07;;
68976;SDS011;56029;52.568;13.588;2022-08-21T02:11:52;13.27;;;8.30;;
68976;SDS011;56029;52.568;13.588;2022-08-21T02:14:17;12.13;;;8.02;;
68976;SDS011;56029;52.568;13.588;2022-08-21T02:16:43;15.18;;;8.07;;
68976;SDS011;56029;52.568;13.588;2022-08-21T02:19:11;11.87;;;8.13;;
68976;SDS011;56029;52.568;13.588;2022-08-21T02:21:38;12.77;;;7.57;;
68976;SDS011;56029;52.568;13.588;2022-08-21T02:24:05;12.23;;;7.38;;
68976;SDS011;56029;52.568;13.588;2022-08-21T02:26:31;12.95;;;7.72;;
68976;SDS011;56029;52.568;13.588;2022-08-21T02:28:57;12.07;;;8.13;;
68976;SDS011;56029;52.568;13.588;2022-08-21T02:31:23;12.45;;;8.45;;
68976;SDS011;56029;52.568;13.588;2022-08-21T02:33:50;14.00;;;8.52;;
68976;SDS011;56029;52.568;13.588;2022-08-21T02:36:15;13.95;;;8.18;;
68976;SDS011;56029;52.568;13.588;2022-08-21T02:38:41;13.67;;;8.87;;
68976;SDS011;56029;52.568;13.588;2022-08-21T02:41:12;14.02;;;8.45;;
68976;SDS011;56029;52.568;13.588;2022-08-21T02:43:40;14.35;;;8.30;;
68976;SDS011;56029;52.568;13.588;2022-08-21T02:46:06;14.32;;;8.50;;
68976;SDS011;56029;52.568;13.588;2022-08-21T02:48:34;14.70;;;8.50;;
68976;SDS011;56029;52.568;13.588;2022-08-21T02:51:04;16.13;;;8.63;;
68976;SDS011;56029;52.568;13.588;2022-08-21T02:53:30;13.48;;;8.05;;
68976;SDS011;56029;52.568;13.588;2022-08-21T02:55:57;14.10;;;7.80;;
68976;SDS011;56029;52.568;13.588;2022-08-21T02:58:26;13.40;;;8.27;;
68976;SDS011;56029;52.568;13.588;2022-08-21T03:00:56;12.03;;;8.10;;
68976;SDS011;56029;52.568;13.588;2022-08-21T03:03:24;11.65;;;7.93;;
68976;SDS011;56029;52.568;13.588;2022-08-21T03:05:50;13.13;;;8.18;;
68976;SDS011;56029;52.568;13.588;2022-08-21T03:08:16;13.10;;;7.80;;
68976;SDS011;56029;52.568;13.588;2022-08-21T03:10:45;15.10;;;8.20;;
68976;SDS011;56029;52.568;13.588;2022-08-21T03:13:16;12.77;;;7.80;;
68976;SDS011;56029;52.568;13.588;2022-08-21T03:15:43;13.07;;;7.68;;
68976;SDS011;56029;52.568;13.588;2022-08-21T03:18:10;13.10;;;8.13;;
68976;SDS011;56029;52.568;13.588;2022-08-21T03:20:37;12.90;;;8.30;;
68976;SDS011;56029;52.568;13.588;2022-08-21T03:23:04;13.17;;;8.07;;
68976;SDS011;56029;52.568;13.588;2022-08-21T03:25:31;13.77;;;8.32;;
68976;SDS011;56029;52.568;13.588;2022-08-21T03:27:59;15.00;;;9.02;;
68976;SDS011;56029;52.568;13.588;2022-08-21T03:30:25;14.10;;;8.40;;
68976;SDS011;56029;52.568;13.588;2022-08-21T03:32:51;13.27;;;8.53;;
68976;SDS011;56029;52.568;13.588;2022-08-21T03:35:17;13.77;;;8.55;;
68976;SDS011;56029;52.568;13.588;2022-08-21T03:37:43;14.95;;;9.02;;
68976;SDS011;56029;52.568;13.588;2022-08-21T03:40:10;12.77;;;8.27;;
68976;SDS011;56029;52.568;13.588;2022-08-21T03:42:38;16.45;;;8.93;;
68976;SDS011;56029;52.568;13.588;2022-08-21T03:45:04;15.50;;;8.27;;
68976;SDS011;56029;52.568;13.588;2022-08-21T03:47:31;14.03;;;8.63;;
68976;SDS011;56029;52.568;13.588;2022-08-21T03:49:56;12.85;;;7.95;;
68976;SDS011;56029;52.568;13.588;2022-08-21T03:52:22;14.53;;;8.13;;
68976;SDS011;56029;52.568;13.588;2022-08-21T03:54:48;13.10;;;7.70;;
68976;SDS011;56029;52.568;13.588;2022-08-21T03:57:15;12.60;;;7.95;;
68976;SDS011;56029;52.568;13.588;2022-08-21T03:59:41;12.77;;;7.70;;
68976;SDS011;56029;52.568;13.588;2022-08-21T04:02:08;13.77;;;7.68;;
68976;SDS011;56029;52.568;13.588;2022-08-21T04:04:35;14.02;;;7.45;;
68976;SDS011;56029;52.568;13.588;2022-08-21T04:07:01;13.13;;;7.68;;
68976;SDS011;56029;52.568;13.588;2022-08-21T04:09:27;12.88;;;7.45;;
68976;SDS011;56029;52.568;13.588;2022-08-21T04:11:53;12.27;;;7.53;;
68976;SDS011;56029;52.568;13.588;2022-08-21T04:14:19;11.67;;;7.20;;
68976;SDS011;56029;52.568;13.588;2022-08-21T04:16:45;11.65;;;7.35;;
68976;SDS011;56029;52.568;13.588;2022-08-21T04:19:11;15.45;;;7.60;;
68976;SDS011;56029;52.568;13.588;2022-08-21T04:21:41;13.60;;;7.00;;
68976;SDS011;56029;52.568;13.588;2022-08-21T04:24:08;14.05;;;7.55;;
68976;SDS011;56029;52.568;13.588;2022-08-21T04:26:35;12.13;;;6.50;;
68976;SDS011;56029;52.568;13.588;2022-08-21T04:29:02;12.63;;;7.50;;
68976;SDS011;56029;52.568;13.588;2022-08-21T04:31:32;10.75;;;6.80;;
68976;SDS011;56029;52.568;13.588;2022-08-21T04:33:58;13.47;;;7.20;;
68976;SDS011;56029;52.568;13.588;2022-08-21T04:36:24;11.55;;;6.57;;
68976;SDS011;56029;52.568;13.588;2022-08-21T04:38:50;11.32;;;6.90;;
68976;SDS011;56029;52.568;13.588;2022-08-21T04:41:16;11.43;;;6.78;;
68976;SDS011;56029;52.568;13.588;2022-08-21T04:43:42;11.70;;;6.90;;
68976;SDS011;56029;52.568;13.588;2022-08-21T04:46:08;13.02;;;7.28;;
68976;SDS011;56029;52.568;13.588;2022-08-21T04:48:33;11.67;;;6.73;;
68976;SDS011;56029;52.568;13.588;2022-08-21T04:53:32;14.37;;;7.30;;
68976;SDS011;56029;52.568;13.588;2022-08-21T04:56:01;11.27;;;6.93;;
68976;SDS011;56029;52.568;13.588;2022-08-21T04:58:30;13.32;;;6.82;;
68976;SDS011;56029;52.568;13.588;2022-08-21T05:00:57;14.95;;;7.25;;
68976;SDS011;56029;52.568;13.588;2022-08-21T05:03:23;12.13;;;7.03;;
68976;SDS011;56029;52.568;13.588;2022-08-21T05:05:49;12.98;;;7.15;;
68976;SDS011;56029;52.568;13.588;2022-08-21T05:08:16;11.98;;;6.80;;
68976;SDS011;56029;52.568;13.588;2022-08-21T05:10:44;12.57;;;7.00;;
68976;SDS011;56029;52.568;13.588;2022-08-21T05:13:11;12.47;;;6.63;;
68976;SDS011;56029;52.568;13.588;2022-08-21T05:15:38;12.00;;;6.90;;
68976;SDS011;56029;52.568;13.588;2022-08-21T05:18:04;11.30;;;6.40;;
68976;SDS011;56029;52.568;13.588;2022-08-21T05:20:30;12.02;;;6.60;;
68976;SDS011;56029;52.568;13.588;2022-08-21T05:22:56;11.20;;;6.87;;
68976;SDS011;56029;52.568;13.588;2022-08-21T05:25:21;12.10;;;6.80;;
68976;SDS011;56029;52.568;13.588;2022-08-21T05:27:47;12.37;;;6.00;;
68976;SDS011;56029;52.568;13.588;2022-08-21T05:30:13;10.77;;;6.40;;
68976;SDS011;56029;52.568;13.588;2022-08-21T05:32:38;12.37;;;6.10;;
68976;SDS011;56029;52.568;13.588;2022-08-21T05:35:05;10.52;;;6.05;;
68976;SDS011;56029;52.568;13.588;2022-08-21T05:37:31;11.45;;;6.07;;
68976;SDS011;56029;52.568;13.588;2022-08-21T05:39:58;10.60;;;6.20;;
68976;SDS011;56029;52.568;13.588;2022-08-21T05:42:25;9.90;;;6.00;;
68976;SDS011;56029;52.568;13.588;2022-08-21T05:44:50;11.17;;;6.13;;
68976;SDS011;56029;52.568;13.588;2022-08-21T05:47:16;12.25;;;5.75;;
68976;SDS011;56029;52.568;13.588;2022-08-21T05:49:41;10.80;;;5.33;;
68976;SDS011;56029;52.568;13.588;2022-08-21T05:52:07;11.15;;;6.03;;
68976;SDS011;56029;52.568;13.588;2022-08-21T05:54:34;10.48;;;5.45;;
68976;SDS011;56029;52.568;13.588;2022-08-21T05:57:02;10.67;;;5.70;;
68976;SDS011;56029;52.568;13.588;2022-08-21T05:59:27;11.13;;;5.88;;
68976;SDS011;56029;52.568;13.588;2022-08-21T06:01:53;10.17;;;6.00;;
68976;SDS011;56029;52.568;13.588;2022-08-21T06:04:19;9.57;;;5.40;;
68976;SDS011;56029;52.568;13.588;2022-08-21T06:06:44;13.63;;;5.73;;
68976;SDS011;56029;52.568;13.588;2022-08-21T06:09:10;11.32;;;5.38;;
68976;SDS011;56029;52.568;13.588;2022-08-21T06:11:36;12.63;;;5.50;;
68976;SDS011;56029;52.568;13.588;2022-08-21T06:14:01;10.05;;;5.50;;
68976;SDS011;56029;52.568;13.588;2022-08-21T06:16:27;9.97;;;5.03;;
68976;SDS011;56029;52.568;13.588;2022-08-21T06:18:53;8.75;;;5.18;;
68976;SDS011;56029;52.568;13.588;2022-08-21T06:21:19;9.80;;;5.57;;
68976;SDS011;56029;52.568;13.588;2022-08-21T06:23:45;10.87;;;5.40;;
68976;SDS011;56029;52.568;13.588;2022-08-21T06:26:12;7.95;;;4.85;;
68976;SDS011;56029;52.568;13.588;2022-08-21T06:28:38;9.60;;;5.22;;
68976;SDS011;56029;52.568;13.588;2022-08-21T06:31:11;9.90;;;5.07;;
68976;SDS011;56029;52.568;13.588;2022-08-21T06:33:42;9.57;;;4.97;;
68976;SDS011;56029;52.568;13.588;2022-08-21T06:36:07;8.45;;;4.57;;
68976;SDS011;56029;52.568;13.588;2022-08-21T06:38:34;10.77;;;4.80;;
68976;SDS011;56029;52.568;13.588;2022-08-21T06:41:00;9.38;;;5.22;;
68976;SDS011;56029;52.568;13.588;2022-08-21T06:43:26;8.70;;;4.67;;
68976;SDS011;56029;52.568;13.588;2022-08-21T06:45:52;8.25;;;4.63;;
68976;SDS011;56029;52.568;13.588;2022-08-21T06:48:18;9.20;;;4.70;;
68976;SDS011;56029;52.568;13.588;2022-08-21T06:50:44;11.88;;;4.65;;
68976;SDS011;56029;52.568;13.588;2022-08-21T06:53:10;9.27;;;4.27;;
68976;SDS011;56029;52.568;13.588;2022-08-21T06:55:39;9.55;;;4.10;;
68976;SDS011;56029;52.568;13.588;2022-08-21T06:58:06;7.97;;;4.30;;
68976;SDS011;56029;52.568;13.588;2022-08-21T07:00:33;7.63;;;4.23;;
68976;SDS011;56029;52.568;13.588;2022-08-21T07:03:00;7.72;;;4.30;;
68976;SDS011;56029;52.568;13.588;2022-08-21T07:05:26;8.60;;;4.50;;
68976;SDS011;56029;52.568;13.588;2022-08-21T07:07:54;10.02;;;4.25;;
68976;SDS011;56029;52.568;13.588;2022-08-21T07:10:20;9.50;;;4.27;;
68976;SDS011;56029;52.568;13.588;2022-08-21T07:12:45;7.80;;;3.80;;
68976;SDS011;56029;52.568;13.588;2022-08-21T07:15:11;11.60;;;4.30;;
68976;SDS011;56029;52.568;13.588;2022-08-21T07:17:37;7.82;;;3.95;;
68976;SDS011;56029;52.568;13.588;2022-08-21T07:20:03;7.73;;;3.90;;
68976;SDS011;56029;52.568;13.588;2022-08-21T07:22:29;7.32;;;3.65;;
68976;SDS011;56029;52.568;13.588;2022-08-21T07:24:55;8.33;;;3.70;;
68976;SDS011;56029;52.568;13.588;2022-08-21T07:27:20;8.77;;;3.78;;
68976;SDS011;56029;52.568;13.588;2022-08-21T07:29:46;6.63;;;3.47;;
68976;SDS011;56029;52.568;13.588;2022-08-21T07:32:11;7.50;;;3.28;;
68976;SDS011;56029;52.568;13.588;2022-08-21T07:34:37;8.03;;;3.40;;
68976;SDS011;56029;52.568;13.588;2022-08-21T07:37:02;7.37;;;2.97;;
68976;SDS011;56029;52.568;13.588;2022-08-21T07:39:28;7.53;;;3.55;;
68976;SDS011;56029;52.568;13.588;2022-08-21T07:41:54;6.13;;;3.20;;
68976;SDS011;56029;52.568;13.588;2022-08-21T07:44:19;7.15;;;3.17;;
68976;SDS011;56029;52.568;13.588;2022-08-21T07:46:45;9.60;;;3.53;;
68976;SDS011;56029;52.568;13.588;2022-08-21T07:49:10;8.47;;;3.13;;
68976;SDS011;56029;52.568;13.588;2022-08-21T07:51:36;7.38;;;3.35;;
68976;SDS011;56029;52.568;13.588;2022-08-21T07:54:01;5.57;;;2.90;;
68976;SDS011;56029;52.568;13.588;2022-08-21T07:56:28;5.27;;;2.93;;
68976;SDS011;56029;52.568;13.588;2022-08-21T07:58:55;6.43;;;2.95;;
68976;SDS011;56029;52.568;13.588;2022-08-21T08:01:23;6.28;;;3.00;;
68976;SDS011;56029;52.568;13.588;2022-08-21T08:03:49;5.72;;;2.70;;
68976;SDS011;56029;52.568;13.588;2022-08-21T08:06:14;6.90;;;2.80;;
68976;SDS011;56029;52.568;13.588;2022-08-21T08:08:42;4.93;;;2.50;;
68976;SDS011;56029;52.568;13.588;2022-08-21T08:11:08;5.57;;;2.50;;
68976;SDS011;56029;52.568;13.588;2022-08-21T08:13:44;6.03;;;2.50;;
68976;SDS011;56029;52.568;13.588;2022-08-21T08:16:12;5.78;;;2.40;;
68976;SDS011;56029;52.568;13.588;2022-08-21T08:18:38;5.33;;;2.50;;
68976;SDS011;56029;52.568;13.588;2022-08-21T08:21:04;5.88;;;2.42;;
68976;SDS011;56029;52.568;13.588;2022-08-21T08:23:31;3.80;;;2.20;;
68976;SDS011;56029;52.568;13.588;2022-08-21T08:25:57;5.87;;;2.43;;
68976;SDS011;56029;52.568;13.588;2022-08-21T08:28:23;6.20;;;2.22;;
68976;SDS011;56029;52.568;13.588;2022-08-21T08:30:49;6.38;;;2.55;;
68976;SDS011;56029;52.568;13.588;2022-08-21T08:33:15;5.47;;;2.17;;
68976;SDS011;56029;52.568;13.588;2022-08-21T08:35:45;5.67;;;2.27;;
68976;SDS011;56029;52.568;13.588;2022-08-21T08:38:13;6.53;;;2.28;;
68976;SDS011;56029;52.568;13.588;2022-08-21T08:40:47;6.07;;;2.30;;
68976;SDS011;56029;52.568;13.588;2022-08-21T08:43:38;7.78;;;2.30;;
68976;SDS011;56029;52.568;13.588;2022-08-21T08:46:08;6.07;;;2.47;;
68976;SDS011;56029;52.568;13.588;2022-08-21T08:48:41;5.10;;;2.33;;
68976;SDS011;56029;52.568;13.588;2022-08-21T08:51:25;3.45;;;2.20;;
68976;SDS011;56029;52.568;13.588;2022-08-21T08:54:04;6.05;;;2.47;;
68976;SDS011;56029;52.568;13.588;2022-08-21T08:56:36;6.15;;;2.25;;
68976;SDS011;56029;52.568;13.588;2022-08-21T08:59:11;8.40;;;2.20;;
68976;SDS011;56029;52.568;13.588;2022-08-21T09:01:42;7.17;;;2.43;;
68976;SDS011;56029;52.568;13.588;2022-08-21T09:04:08;5.95;;;2.17;;
68976;SDS011;56029;52.568;13.588;2022-08-21T09:20:59;5.63;;;2.20;;
68976;SDS011;56029;52.568;13.588;2022-08-21T09:26:14;6.43;;;2.20;;
68976;SDS011;56029;52.568;13.588;2022-08-21T09:28:41;6.88;;;2.25;;
68976;SDS011;56029;52.568;13.588;2022-08-21T09:31:11;5.82;;;2.15;;
68976;SDS011;56029;52.568;13.588;2022-08-21T09:33:57;4.75;;;2.20;;
68976;SDS011;56029;52.568;13.588;2022-08-21T09:36:33;6.97;;;2.20;;
68976;SDS011;56029;52.568;13.588;2022-08-21T09:39:04;5.90;;;2.20;;
68976;SDS011;56029;52.568;13.588;2022-08-21T09:41:32;6.32;;;2.30;;
68976;SDS011;56029;52.568;13.588;2022-08-21T09:44:00;5.00;;;2.10;;
68976;SDS011;56029;52.568;13.588;2022-08-21T09:46:27;4.90;;;1.98;;
68976;SDS011;56029;52.568;13.588;2022-08-21T09:48:54;4.50;;;2.33;;
68976;SDS011;56029;52.568;13.588;2022-08-21T09:51:26;7.67;;;2.23;;
68976;SDS011;56029;52.568;13.588;2022-08-21T09:54:10;4.78;;;1.90;;
68976;SDS011;56029;52.568;13.588;2022-08-21T09:56:53;7.90;;;2.00;;
68976;SDS011;56029;52.568;13.588;2022-08-21T09:59:40;3.88;;;1.80;;
68976;SDS011;56029;52.568;13.588;2022-08-21T10:04:52;5.03;;;2.00;;
68976;SDS011;56029;52.568;13.588;2022-08-21T10:07:21;4.97;;;2.10;;
68976;SDS011;56029;52.568;13.588;2022-08-21T10:10:03;5.45;;;2.00;;
68976;SDS011;56029;52.568;13.588;2022-08-21T10:15:13;3.70;;;1.95;;
68976;SDS011;56029;52.568;13.588;2022-08-21T10:20:22;5.25;;;1.95;;
68976;SDS011;56029;52.568;13.588;2022-08-21T10:23:02;5.70;;;2.10;;
68976;SDS011;56029;52.568;13.588;2022-08-21T10:26:12;3.83;;;1.90;;
68976;SDS011;56029;52.568;13.588;2022-08-21T10:28:55;5.72;;;2.20;;
68976;SDS011;56029;52.568;13.588;2022-08-21T10:34:16;4.93;;;2.30;;
68976;SDS011;56029;52.568;13.588;2022-08-21T10:36:56;5.53;;;2.10;;
68976;SDS011;56029;52.568;13.588;2022-08-21T10:39:33;5.00;;;2.03;;
68976;SDS011;56029;52.568;13.588;2022-08-21T10:42:08;4.68;;;1.92;;
68976;SDS011;56029;52.568;13.588;2022-08-21T10:44:49;4.27;;;2.00;;
68976;SDS011;56029;52.568;13.588;2022-08-21T10:47:55;6.82;;;2.20;;
68976;SDS011;56029;52.568;13.588;2022-08-21T10:50:32;5.15;;;2.10;;
68976;SDS011;56029;52.568;13.588;2022-08-21T10:53:27;5.85;;;2.00;;
68976;SDS011;56029;52.568;13.588;2022-08-21T10:56:18;5.07;;;2.20;;
68976;SDS011;56029;52.568;13.588;2022-08-21T10:58:49;6.23;;;1.93;;
68976;SDS011;56029;52.568;13.588;2022-08-21T11:01:21;4.32;;;1.90;;
68976;SDS011;56029;52.568;13.588;2022-08-21T11:06:38;4.25;;;1.75;;
68976;SDS011;56029;52.568;13.588;2022-08-21T11:09:11;4.93;;;1.90;;
68976;SDS011;56029;52.568;13.588;2022-08-21T11:11:41;4.00;;;1.70;;
68976;SDS011;56029;52.568;13.588;2022-08-21T11:14:21;4.97;;;1.83;;
68976;SDS011;56029;52.568;13.588;2022-08-21T11:17:00;4.20;;;2.00;;
68976;SDS011;56029;52.568;13.588;2022-08-21T11:19:38;5.60;;;2.10;;
68976;SDS011;56029;52.568;13.588;2022-08-21T11:22:28;4.53;;;2.00;;
68976;SDS011;56029;52.568;13.588;2022-08-21T11:27:49;5.65;;;2.00;;
68976;SDS011;56029;52.568;13.588;2022-08-21T11:30:17;4.90;;;2.00;;
68976;SDS011;56029;52.568;13.588;2022-08-21T11:35:37;3.63;;;2.13;;
68976;SDS011;56029;52.568;13.588;2022-08-21T11:38:13;4.45;;;2.00;;
68976;SDS011;56029;52.568;13.588;2022-08-21T11:46:13;4.78;;;1.80;;
68976;SDS011;56029;52.568;13.588;2022-08-21T11:54:33;6.28;;;2.03;;
68976;SDS011;56029;52.568;13.588;2022-08-21T11:57:06;4.88;;;2.00;;
68976;SDS011;56029;52.568;13.588;2022-08-21T11:59:43;4.28;;;1.77;;
68976;SDS011;56029;52.568;13.588;2022-08-21T12:02:14;4.40;;;1.80;;
68976;SDS011;56029;52.568;13.588;2022-08-21T12:04:47;5.85;;;2.17;;
68976;SDS011;56029;52.568;13.588;2022-08-21T12:07:28;5.90;;;2.10;;
68976;SDS011;56029;52.568;13.588;2022-08-21T12:09:58;4.10;;;2.00;;
68976;SDS011;56029;52.568;13.588;2022-08-21T12:12:31;5.35;;;1.88;;
68976;SDS011;56029;52.568;13.588;2022-08-21T12:15:43;4.43;;;1.90;;
68976;SDS011;56029;52.568;13.588;2022-08-21T12:23:12;5.07;;;2.03;;
68976;SDS011;56029;52.568;13.588;2022-08-21T12:25:43;5.90;;;2.70;;
68976;SDS011;56029;52.568;13.588;2022-08-21T12:28:14;7.07;;;2.67;;
68976;SDS011;56029;52.568;13.588;2022-08-21T12:30:47;6.45;;;2.40;;
68976;SDS011;56029;52.568;13.588;2022-08-21T12:33:24;4.93;;;2.10;;
68976;SDS011;56029;52.568;13.588;2022-08-21T12:36:30;3.17;;;1.67;;
68976;SDS011;56029;52.568;13.588;2022-08-21T12:38:58;3.30;;;1.80;;
68976;SDS011;56029;52.568;13.588;2022-08-21T12:41:28;4.80;;;1.80;;
68976;SDS011;56029;52.568;13.588;2022-08-21T12:46:34;4.40;;;1.80;;
68976;SDS011;56029;52.568;13.588;2022-08-21T12:49:35;4.45;;;1.70;;
68976;SDS011;56029;52.568;13.588;2022-08-21T12:54:39;2.37;;;1.50;;
68976;SDS011;56029;52.568;13.588;2022-08-21T12:57:08;4.82;;;1.80;;
68976;SDS011;56029;52.568;13.588;2022-08-21T12:59:41;3.05;;;1.90;;
68976;SDS011;56029;52.568;13.588;2022-08-21T13:02:18;3.40;;;1.70;;
68976;SDS011;56029;52.568;13.588;2022-08-21T13:04:47;3.30;;;1.60;;
68976;SDS011;56029;52.568;13.588;2022-08-21T13:07:15;3.70;;;1.60;;
68976;SDS011;56029;52.568;13.588;2022-08-21T13:09:48;4.68;;;1.80;;
68976;SDS011;56029;52.568;13.588;2022-08-21T13:12:16;3.15;;;1.60;;
68976;SDS011;56029;52.568;13.588;2022-08-21T13:14:45;3.13;;;1.40;;
68976;SDS011;56029;52.568;13.588;2022-08-21T13:17:16;3.63;;;1.70;;
68976;SDS011;56029;52.568;13.588;2022-08-21T13:19:52;4.60;;;1.67;;
68976;SDS011;56029;52.568;13.588;2022-08-21T13:22:24;2.60;;;1.52;;
68976;SDS011;56029;52.568;13.588;2022-08-21T13:24:50;2.53;;;1.50;;
68976;SDS011;56029;52.568;13.588;2022-08-21T13:27:17;3.57;;;1.50;;
68976;SDS011;56029;52.568;13.588;2022-08-21T13:29:45;2.47;;;1.50;;
68976;SDS011;56029;52.568;13.588;2022-08-21T13:32:17;3.55;;;1.77;;
68976;SDS011;56029;52.568;13.588;2022-08-21T13:34:46;2.85;;;1.40;;
68976;SDS011;56029;52.568;13.588;2022-08-21T13:37:12;2.47;;;1.20;;
68976;SDS011;56029;52.568;13.588;2022-08-21T13:39:39;2.28;;;1.30;;
68976;SDS011;56029;52.568;13.588;2022-08-21T13:42:09;3.73;;;1.60;;
68976;SDS011;56029;52.568;13.588;2022-08-21T13:44:42;2.03;;;1.20;;
68976;SDS011;56029;52.568;13.588;2022-08-21T13:47:10;2.53;;;1.35;;
68976;SDS011;56029;52.568;13.588;2022-08-21T13:49:45;2.78;;;1.30;;
68976;SDS011;56029;52.568;13.588;2022-08-21T13:52:15;2.45;;;1.40;;
68976;SDS011;56029;52.568;13.588;2022-08-21T13:54:42;2.77;;;1.30;;
68976;SDS011;56029;52.568;13.588;2022-08-21T13:57:19;3.53;;;1.20;;
68976;SDS011;56029;52.568;13.588;2022-08-21T13:59:51;2.53;;;1.35;;
68976;SDS011;56029;52.568;13.588;2022-08-21T14:02:20;2.40;;;1.40;;
68976;SDS011;56029;52.568;13.588;2022-08-21T14:04:56;2.92;;;1.20;;
68976;SDS011;56029;52.568;13.588;2022-08-21T14:07:25;2.67;;;1.30;;
68976;SDS011;56029;52.568;13.588;2022-08-21T14:09:52;2.95;;;1.35;;
68976;SDS011;56029;52.568;13.588;2022-08-21T14:12:24;3.97;;;1.40;;
68976;SDS011;56029;52.568;13.588;2022-08-21T14:14:58;2.23;;;1.30;;
68976;SDS011;56029;52.568;13.588;2022-08-21T14:17:34;2.17;;;1.33;;
68976;SDS011;56029;52.568;13.588;2022-08-21T14:20:03;3.00;;;1.60;;
68976;SDS011;56029;52.568;13.588;2022-08-21T14:22:38;2.70;;;1.45;;
68976;SDS011;56029;52.568;13.588;2022-08-21T14:32:46;2.63;;;1.50;;
68976;SDS011;56029;52.568;13.588;2022-08-21T14:35:12;3.47;;;1.77;;
68976;SDS011;56029;52.568;13.588;2022-08-21T14:37:42;3.97;;;1.70;;
68976;SDS011;56029;52.568;13.588;2022-08-21T14:40:09;2.47;;;1.37;;
68976;SDS011;56029;52.568;13.588;2022-08-21T14:42:35;7.57;;;3.00;;
68976;SDS011;56029;52.568;13.588;2022-08-21T14:45:02;3.78;;;1.85;;
68976;SDS011;56029;52.568;13.588;2022-08-21T14:47:35;2.65;;;1.80;;
68976;SDS011;56029;52.568;13.588;2022-08-21T14:50:03;3.87;;;1.80;;
68976;SDS011;56029;52.568;13.588;2022-08-21T14:52:28;5.32;;;1.90;;
68976;SDS011;56029;52.568;13.588;2022-08-21T14:54:54;3.03;;;1.83;;
68976;SDS011;56029;52.568;13.588;2022-08-21T14:57:19;3.13;;;1.70;;
68976;SDS011;56029;52.568;13.588;2022-08-21T14:59:45;3.83;;;1.60;;
68976;SDS011;56029;52.568;13.588;2022-08-21T15:02:11;2.78;;;1.60;;
68976;SDS011;56029;52.568;13.588;2022-08-21T15:04:36;4.80;;;1.80;;
68976;SDS011;56029;52.568;13.588;2022-08-21T15:07:02;2.53;;;1.60;;
68976;SDS011;56029;52.568;13.588;2022-08-21T15:09:29;3.10;;;1.90;;
68976;SDS011;56029;52.568;13.588;2022-08-21T15:11:55;4.47;;;2.10;;
68976;SDS011;56029;52.568;13.588;2022-08-21T15:14:26;4.35;;;1.90;;
68976;SDS011;56029;52.568;13.588;2022-08-21T15:16:53;3.17;;;1.90;;
68976;SDS011;56029;52.568;13.588;2022-08-21T15:19:19;4.97;;;2.00;;
68976;SDS011;56029;52.568;13.588;2022-08-21T15:21:44;3.00;;;1.90;;
68976;SDS011;56029;52.568;13.588;2022-08-21T15:24:10;3.47;;;1.83;;
68976;SDS011;56029;52.568;13.588;2022-08-21T15:26:36;3.42;;;2.10;;
68976;SDS011;56029;52.568;13.588;2022-08-21T15:29:02;3.58;;;1.90;;
68976;SDS011;56029;52.568;13.588;2022-08-21T15:31:29;4.07;;;2.10;;
68976;SDS011;56029;52.568;13.588;2022-08-21T15:33:55;3.92;;;1.83;;
68976;SDS011;56029;52.568;13.588;2022-08-21T15:36:21;4.23;;;1.90;;
68976;SDS011;56029;52.568;13.588;2022-08-21T15:38:46;4.28;;;1.98;;
68976;SDS011;56029;52.568;13.588;2022-08-21T15:41:12;3.37;;;2.17;;
68976;SDS011;56029;52.568;13.588;2022-08-21T15:43:46;4.45;;;2.00;;
68976;SDS011;56029;52.568;13.588;2022-08-21T15:46:14;4.43;;;2.17;;
68976;SDS011;56029;52.568;13.588;2022-08-21T15:48:42;5.10;;;2.22;;